Time;durP1;ratioP1;P1;durP2;ratioP2;P2;SDS_P1;SDS_P2;PMS_P1;PMS_P2;Temp;Humidity;BMP_temperature;BMP_pressure;BME280_temperature;BME280_humidity;BME280_pressure;Samples;Min_cycle;Max_cycle;Signal;HPM_P1;HPM_P2
2022/02/20 00:01:25;;;;;;;15.25;2.60;;;;;;;;;;5096352;28;20139;-72
2022/02/20 00:03:52;;;;;;;28.77;3.00;;;;;;;;;;5096641;28;20047;-73
2022/02/20 00:06:18;;;;;;;37.47;4.00;;;;;;;;;;5096096;28;20085;-73
2022/02/20 00:08:45;;;;;;;49.78;4.53;;;;;;;;;;5093789;28;20143;-73
2022/02/20 00:11:12;;;;;;;26.15;3.47;;;;;;;;;;5094111;28;20087;-73
2022/02/20 00:13:38;;;;;;;125.85;6.35;;;;;;;;;;5093023;28;20127;-72
2022/02/20 00:16:06;;;;;;;63.20;4.07;;;;;;;;;;5096882;28;20126;-73
2022/02/20 00:18:33;;;;;;;52.92;4.63;;;;;;;;;;5074166;28;20127;-73
2022/02/20 00:21:00;;;;;;;20.77;4.00;;;;;;;;;;5096488;28;20086;-73
2022/02/20 00:23:26;;;;;;;15.45;3.72;;;;;;;;;;5077730;28;20078;-73
2022/02/20 00:25:53;;;;;;;19.20;3.85;;;;;;;;;;5096341;28;20127;-73
2022/02/20 00:28:19;;;;;;;19.38;4.03;;;;;;;;;;5095544;28;20040;-73
2022/02/20 00:30:46;;;;;;;20.02;3.83;;;;;;;;;;5094683;28;20090;-73
2022/02/20 00:33:13;;;;;;;21.63;4.95;;;;;;;;;;5096207;28;20123;-72
2022/02/20 00:35:39;;;;;;;25.70;4.18;;;;;;;;;;5095093;28;20044;-72
2022/02/20 00:38:12;;;;;;;15.13;3.95;;;;;;;;;;5093529;28;20155;-73
2022/02/20 00:40:39;;;;;;;39.67;4.00;;;;;;;;;;5098155;28;20119;-73
2022/02/20 00:43:05;;;;;;;33.50;3.93;;;;;;;;;;5093593;28;20087;-73
2022/02/20 00:45:32;;;;;;;22.40;3.57;;;;;;;;;;5095823;28;20301;-73
2022/02/20 00:47:59;;;;;;;25.13;3.65;;;;;;;;;;5076838;28;20123;-73
2022/02/20 00:50:26;;;;;;;20.92;3.72;;;;;;;;;;5097651;28;20131;-72
2022/02/20 00:52:54;;;;;;;21.40;3.40;;;;;;;;;;5097697;28;20139;-73
2022/02/20 00:55:20;;;;;;;18.83;3.88;;;;;;;;;;5099179;28;20074;-72
2022/02/20 00:57:47;;;;;;;17.80;3.28;;;;;;;;;;5095616;28;20570;-73
2022/02/20 01:00:16;;;;;;;12.30;3.30;;;;;;;;;;5098320;28;20628;-72
2022/02/20 01:02:43;;;;;;;13.48;3.60;;;;;;;;;;5094842;28;20094;-73
2022/02/20 01:05:09;;;;;;;18.65;3.67;;;;;;;;;;5095570;28;20138;-73
2022/02/20 01:07:42;;;;;;;13.35;2.50;;;;;;;;;;5096052;28;20075;-72
2022/02/20 01:10:09;;;;;;;14.75;2.80;;;;;;;;;;5096023;28;20802;-73
2022/02/20 01:12:36;;;;;;;13.77;3.22;;;;;;;;;;5095565;28;20449;-72
2022/02/20 01:15:05;;;;;;;18.85;3.13;;;;;;;;;;5093915;28;20071;-72
2022/02/20 01:17:32;;;;;;;16.13;2.88;;;;;;;;;;5092267;28;20530;-72
2022/02/20 01:19:58;;;;;;;13.18;2.50;;;;;;;;;;5097263;28;20120;-73
2022/02/20 01:22:26;;;;;;;;;;;;;;;;;;5103833;28;20106;-72
2022/02/20 01:24:52;;;;;;;22.73;2.95;;;;;;;;;;5097134;28;20022;-72
2022/02/20 01:27:19;;;;;;;24.43;3.53;;;;;;;;;;5100186;27;20130;-72
2022/02/20 01:29:52;;;;;;;8.63;3.03;;;;;;;;;;5096644;28;20318;-72
2022/02/20 01:32:19;;;;;;;15.95;3.35;;;;;;;;;;5100157;28;20067;-72
2022/02/20 01:34:45;;;;;;;21.92;3.35;;;;;;;;;;5099477;28;20500;-73
2022/02/20 01:37:12;;;;;;;13.48;3.25;;;;;;;;;;5097035;28;20080;-72
2022/02/20 01:39:39;;;;;;;17.88;2.92;;;;;;;;;;5099215;28;20514;-72
2022/02/20 01:42:05;;;;;;;13.48;2.70;;;;;;;;;;5098439;28;20048;-73
2022/02/20 01:44:33;;;;;;;17.98;3.00;;;;;;;;;;5096077;28;20147;-72
2022/02/20 01:47:04;;;;;;;12.75;2.65;;;;;;;;;;5098761;28;20044;-72
2022/02/20 01:49:31;;;;;;;18.90;2.53;;;;;;;;;;5100629;28;20076;-72
2022/02/20 01:51:58;;;;;;;;;;;;;;;;;;5098852;28;20130;-71
2022/02/20 01:54:24;;;;;;;8.05;2.10;;;;;;;;;;5098434;28;20386;-72
2022/02/20 01:56:52;;;;;;;14.88;2.63;;;;;;;;;;5098163;28;20887;-72
2022/02/20 01:59:24;;;;;;;19.55;3.60;;;;;;;;;;5098648;28;20075;-72
2022/02/20 02:01:54;;;;;;;15.82;2.28;;;;;;;;;;5098190;28;20142;-72
2022/02/20 02:04:21;;;;;;;15.57;2.20;;;;;;;;;;5096306;28;20035;-72
2022/02/20 02:06:54;;;;;;;14.60;2.55;;;;;;;;;;5098295;28;20134;-72
2022/02/20 02:09:20;;;;;;;28.33;2.72;;;;;;;;;;5098100;27;20143;-72
2022/02/20 02:11:47;;;;;;;7.95;2.28;;;;;;;;;;5098929;28;20147;-72
2022/02/20 02:14:14;;;;;;;11.15;2.28;;;;;;;;;;5098108;28;20155;-72
2022/02/20 02:16:40;;;;;;;13.93;2.67;;;;;;;;;;5095740;28;20071;-71
2022/02/20 02:19:07;;;;;;;11.13;2.38;;;;;;;;;;5100571;27;20044;-71
2022/02/20 02:21:40;;;;;;;32.33;3.15;;;;;;;;;;5098906;27;20542;-72
2022/02/20 02:24:08;;;;;;;8.77;2.15;;;;;;;;;;5101198;27;20135;-71
2022/02/20 02:26:35;;;;;;;13.93;3.00;;;;;;;;;;5098231;28;20166;-72
2022/02/20 02:29:02;;;;;;;17.73;3.00;;;;;;;;;;5097830;27;20075;-71
2022/02/20 02:31:29;;;;;;;16.02;2.70;;;;;;;;;;5099620;28;20116;-71
2022/02/20 02:33:55;;;;;;;9.68;2.65;;;;;;;;;;5101135;27;20122;-71
2022/02/20 02:36:25;;;;;;;13.98;2.60;;;;;;;;;;5099048;28;20075;-72
2022/02/20 02:38:52;;;;;;;15.40;2.72;;;;;;;;;;5097537;28;20135;-72
2022/02/20 02:41:18;;;;;;;11.25;2.38;;;;;;;;;;5093647;28;20083;-71
2022/02/20 02:43:45;;;;;;;17.67;2.97;;;;;;;;;;5096946;28;20130;-71
2022/02/20 02:46:11;;;;;;;7.40;2.63;;;;;;;;;;5102721;28;20043;-71
2022/02/20 02:48:50;;;;;;;11.52;2.55;;;;;;;;;;5097130;28;20322;-72
2022/02/20 02:51:20;;;;;;;16.65;2.70;;;;;;;;;;5097021;28;20040;-72
2022/02/20 02:53:47;;;;;;;7.82;2.10;;;;;;;;;;5097477;28;20068;-72
2022/02/20 02:56:13;;;;;;;8.63;2.20;;;;;;;;;;5097324;28;20134;-72
2022/02/20 02:58:46;;;;;;;7.47;2.67;;;;;;;;;;5099304;28;20143;-71
2022/02/20 03:01:13;;;;;;;9.07;2.40;;;;;;;;;;5097531;28;20067;-71
2022/02/20 03:03:39;;;;;;;16.05;2.30;;;;;;;;;;5096919;27;20150;-72
2022/02/20 03:06:07;;;;;;;7.00;2.63;;;;;;;;;;5098100;28;20711;-71
2022/02/20 03:08:34;;;;;;;12.05;2.90;;;;;;;;;;5098404;28;20123;-70
2022/02/20 03:11:00;;;;;;;13.50;2.90;;;;;;;;;;5097252;28;20527;-72
2022/02/20 03:13:32;;;;;;;14.02;2.72;;;;;;;;;;5096924;28;20071;-71
2022/02/20 03:15:59;;;;;;;6.35;2.60;;;;;;;;;;5098779;28;20594;-71
2022/02/20 03:18:30;;;;;;;9.70;2.47;;;;;;;;;;5094380;28;20101;-71
2022/02/20 03:21:00;;;;;;;11.35;2.70;;;;;;;;;;5100271;28;20044;-71
2022/02/20 03:23:26;;;;;;;6.07;2.42;;;;;;;;;;5096718;28;20550;-71
2022/02/20 03:25:53;;;;;;;6.30;1.80;;;;;;;;;;5093694;28;20582;-71
2022/02/20 03:28:23;;;;;;;9.30;2.20;;;;;;;;;;5102562;28;20126;-71
2022/02/20 03:30:49;;;;;;;8.35;2.38;;;;;;;;;;5096623;28;20131;-71
2022/02/20 03:33:15;;;;;;;12.48;2.47;;;;;;;;;;5099915;28;20075;-71
2022/02/20 03:35:48;;;;;;;22.52;2.80;;;;;;;;;;5095786;28;20379;-72
2022/02/20 03:38:15;;;;;;;8.50;2.30;;;;;;;;;;5096747;28;20788;-71
2022/02/20 03:40:41;;;;;;;2.50;1.47;;;;;;;;;;5096793;28;20090;-71
2022/02/20 03:43:08;;;;;;;5.45;2.25;;;;;;;;;;5096323;28;20369;-71
2022/02/20 03:45:35;;;;;;;9.80;2.38;;;;;;;;;;5094854;28;20125;-71
2022/02/20 03:48:01;;;;;;;6.45;2.65;;;;;;;;;;5099037;28;20071;-71
2022/02/20 03:50:29;;;;;;;;;;;;;;;;;;5099143;28;20103;-71
2022/02/20 03:52:55;;;;;;;8.68;2.35;;;;;;;;;;5095102;27;20402;-71
2022/02/20 03:55:22;;;;;;;9.37;2.00;;;;;;;;;;5096161;28;20051;-71
2022/02/20 03:57:49;;;;;;;4.50;2.30;;;;;;;;;;5100393;28;20131;-71
2022/02/20 04:00:17;;;;;;;9.50;2.75;;;;;;;;;;5096073;28;20135;-71
2022/02/20 04:02:43;;;;;;;6.85;2.50;;;;;;;;;;5098681;28;20519;-71
2022/02/20 04:05:17;;;;;;;14.68;2.50;;;;;;;;;;5096965;28;20129;-71
2022/02/20 04:07:44;;;;;;;8.27;2.28;;;;;;;;;;5096232;28;20477;-71
2022/02/20 04:10:11;;;;;;;15.13;3.33;;;;;;;;;;5094956;28;20162;-71
2022/02/20 04:12:45;;;;;;;10.05;2.53;;;;;;;;;;5079321;28;20078;-71
2022/02/20 04:15:11;;;;;;;3.78;1.88;;;;;;;;;;5095139;28;20130;-71
2022/02/20 04:17:41;;;;;;;8.17;2.63;;;;;;;;;;5097122;28;20131;-71
2022/02/20 04:20:15;;;;;;;4.25;2.17;;;;;;;;;;5095551;28;20043;-71
2022/02/20 04:22:42;;;;;;;11.07;2.08;;;;;;;;;;5083271;28;20063;-71
2022/02/20 04:25:12;;;;;;;10.63;2.67;;;;;;;;;;5094633;28;20130;-71
2022/02/20 04:27:39;;;;;;;10.15;3.25;;;;;;;;;;5095814;28;20408;-71
2022/02/20 04:30:06;;;;;;;9.52;2.22;;;;;;;;;;5095172;28;20082;-71
2022/02/20 04:32:32;;;;;;;8.25;2.30;;;;;;;;;;5094760;28;20035;-71
2022/02/20 04:35:01;;;;;;;8.32;2.63;;;;;;;;;;5096257;28;20068;-71
2022/02/20 04:37:28;;;;;;;;;;;;;;;;;;5097272;28;20057;-71
2022/02/20 04:39:54;;;;;;;8.48;2.17;;;;;;;;;;5095446;28;20353;-70
2022/02/20 04:42:21;;;;;;;9.00;2.70;;;;;;;;;;5099208;28;20550;-70
2022/02/20 04:44:47;;;;;;;4.73;1.70;;;;;;;;;;5096784;28;20075;-71
2022/02/20 04:47:13;;;;;;;8.45;2.33;;;;;;;;;;5095077;28;20328;-71
2022/02/20 04:49:41;;;;;;;8.43;2.30;;;;;;;;;;5096572;28;20040;-70
2022/02/20 04:52:08;;;;;;;7.70;2.50;;;;;;;;;;5099075;28;20146;-70
2022/02/20 04:54:34;;;;;;;3.42;1.92;;;;;;;;;;5094083;28;20381;-71
2022/02/20 04:57:04;;;;;;;10.40;2.60;;;;;;;;;;5101080;28;20127;-71
2022/02/20 04:59:31;;;;;;;7.30;2.40;;;;;;;;;;5098721;28;20222;-71
2022/02/20 05:01:57;;;;;;;9.52;2.08;;;;;;;;;;5097670;28;20139;-70
2022/02/20 05:04:24;;;;;;;4.33;1.47;;;;;;;;;;5098362;28;20076;-70
2022/02/20 05:06:50;;;;;;;14.37;3.33;;;;;;;;;;5096236;28;20142;-70
2022/02/20 05:09:16;;;;;;;21.90;2.65;;;;;;;;;;5099022;28;20460;-70
2022/02/20 05:11:49;;;;;;;9.30;2.80;;;;;;;;;;5100684;28;20074;-71
2022/02/20 05:14:16;;;;;;;8.27;2.77;;;;;;;;;;5098619;28;20075;-70
2022/02/20 05:16:42;;;;;;;4.75;2.30;;;;;;;;;;5098321;28;20075;-70
2022/02/20 05:19:09;;;;;;;12.18;2.58;;;;;;;;;;5099419;28;20669;-70
2022/02/20 05:21:35;;;;;;;9.13;2.08;;;;;;;;;;5100774;28;20066;-70
2022/02/20 05:24:02;;;;;;;9.33;2.20;;;;;;;;;;5095677;28;20147;-70
2022/02/20 05:26:29;;;;;;;12.68;2.72;;;;;;;;;;5098839;27;20144;-73
2022/02/20 05:28:55;;;;;;;12.18;2.53;;;;;;;;;;5099369;28;20100;-72
2022/02/20 05:31:22;;;;;;;13.32;3.03;;;;;;;;;;5100707;27;20085;-72
2022/02/20 05:33:49;;;;;;;9.57;2.30;;;;;;;;;;5099800;28;20074;-72
2022/02/20 05:36:17;;;;;;;5.80;2.20;;;;;;;;;;5100899;28;20071;-72
2022/02/20 05:38:44;;;;;;;10.65;2.60;;;;;;;;;;5094359;28;20148;-72
2022/02/20 05:41:10;;;;;;;8.47;2.17;;;;;;;;;;5098668;28;21744;-72
2022/02/20 05:43:40;;;;;;;14.17;2.47;;;;;;;;;;5097937;28;20335;-71
2022/02/20 05:46:06;;;;;;;9.95;2.50;;;;;;;;;;5095615;28;20052;-72
2022/02/20 05:48:33;;;;;;;6.43;1.85;;;;;;;;;;5099971;28;20143;-71
2022/02/20 05:51:00;;;;;;;13.80;2.35;;;;;;;;;;5097787;28;20190;-72
2022/02/20 05:53:26;;;;;;;5.50;2.60;;;;;;;;;;5096828;28;20119;-71
2022/02/20 05:55:59;;;;;;;10.82;2.00;;;;;;;;;;5096708;27;20078;-71
2022/02/20 05:58:26;;;;;;;12.35;2.67;;;;;;;;;;5099187;27;20067;-71
2022/02/20 06:00:52;;;;;;;8.07;1.63;;;;;;;;;;5097757;28;20050;-72
2022/02/20 06:03:19;;;;;;;;;;;;;;;;;;5100448;28;20517;-71
2022/02/20 06:05:46;;;;;;;7.93;2.45;;;;;;;;;;5097496;28;20014;-71
2022/02/20 06:08:12;;;;;;;10.27;2.10;;;;;;;;;;5096612;27;20138;-72
2022/02/20 06:10:46;;;;;;;9.95;2.38;;;;;;;;;;5100159;28;20052;-71
2022/02/20 06:13:12;;;;;;;10.70;2.28;;;;;;;;;;5095726;28;20502;-71
2022/02/20 06:15:38;;;;;;;3.57;1.73;;;;;;;;;;5098553;28;20105;-72
2022/02/20 06:18:06;;;;;;;8.48;2.30;;;;;;;;;;5100133;27;20131;-71
2022/02/20 06:20:32;;;;;;;6.68;2.78;;;;;;;;;;5099916;28;20127;-71
2022/02/20 06:22:59;;;;;;;10.97;2.30;;;;;;;;;;5097075;28;20212;-71
2022/02/20 06:25:26;;;;;;;7.00;2.03;;;;;;;;;;5096545;27;20083;-71
2022/02/20 06:27:53;;;;;;;8.60;1.92;;;;;;;;;;5098668;27;20086;-71
2022/02/20 06:30:20;;;;;;;4.82;1.42;;;;;;;;;;5100792;28;20048;-71
2022/02/20 06:32:50;;;;;;;10.52;2.10;;;;;;;;;;5095071;28;20044;-71
2022/02/20 06:35:16;;;;;;;9.02;2.40;;;;;;;;;;5100739;28;20139;-70
2022/02/20 06:37:43;;;;;;;5.43;2.00;;;;;;;;;;5096173;27;20069;-70
2022/02/20 06:40:21;;;;;;;;;;;;;;;;;;5094713;28;20347;-70
2022/02/20 06:42:49;;;;;;;13.57;3.25;;;;;;;;;;5100427;28;20430;-70
2022/02/20 06:45:17;;;;;;;7.88;2.30;;;;;;;;;;5097755;28;20071;-70
2022/02/20 06:47:44;;;;;;;5.55;2.13;;;;;;;;;;5096849;27;20134;-70
2022/02/20 06:50:10;;;;;;;4.00;2.17;;;;;;;;;;5099259;28;20148;-70
2022/02/20 06:52:44;;;;;;;12.77;2.00;;;;;;;;;;5094452;28;20590;-70
2022/02/20 06:55:13;;;;;;;5.22;1.88;;;;;;;;;;5101263;28;20127;-71
2022/02/20 06:57:40;;;;;;;17.92;1.88;;;;;;;;;;5096587;27;20123;-71
2022/02/20 07:00:12;;;;;;;9.35;2.42;;;;;;;;;;5096826;28;20131;-70
2022/02/20 07:02:39;;;;;;;9.02;2.25;;;;;;;;;;5094962;28;20465;-70
2022/02/20 07:05:06;;;;;;;13.50;2.38;;;;;;;;;;5102614;28;20126;-70
2022/02/20 07:07:34;;;;;;;13.50;2.47;;;;;;;;;;5095641;28;20079;-71
2022/02/20 07:10:03;;;;;;;7.72;1.70;;;;;;;;;;5097573;28;20159;-71
2022/02/20 07:12:30;;;;;;;7.22;2.65;;;;;;;;;;5096785;28;20066;-71
2022/02/20 07:14:58;;;;;;;11.85;2.40;;;;;;;;;;5099322;27;20159;-71
2022/02/20 07:17:26;;;;;;;9.02;2.75;;;;;;;;;;5094324;28;20561;-70
2022/02/20 07:19:52;;;;;;;14.50;2.83;;;;;;;;;;5095451;28;20134;-71
2022/02/20 07:22:18;;;;;;;11.13;2.07;;;;;;;;;;5095190;28;20071;-71
2022/02/20 07:24:45;;;;;;;10.25;2.08;;;;;;;;;;5099960;28;20317;-71
2022/02/20 07:27:11;;;;;;;7.55;2.28;;;;;;;;;;5092111;28;20487;-71
2022/02/20 07:29:38;;;;;;;10.88;1.90;;;;;;;;;;5097589;28;20471;-71
2022/02/20 07:32:05;;;;;;;11.30;2.60;;;;;;;;;;5093958;28;20130;-71
2022/02/20 07:34:32;;;;;;;8.82;2.80;;;;;;;;;;5097052;28;20079;-71
2022/02/20 07:36:59;;;;;;;11.00;2.13;;;;;;;;;;5096398;28;20036;-71
2022/02/20 07:39:25;;;;;;;12.73;2.30;;;;;;;;;;5097118;28;20116;-71
2022/02/20 07:41:52;;;;;;;9.00;2.13;;;;;;;;;;5098366;28;20040;-69
2022/02/20 07:44:18;;;;;;;13.77;2.28;;;;;;;;;;5093891;28;20083;-69
2022/02/20 07:46:45;;;;;;;9.80;1.73;;;;;;;;;;5094931;28;20138;-69
2022/02/20 07:49:11;;;;;;;15.50;2.60;;;;;;;;;;5097270;28;20428;-71
2022/02/20 07:51:38;;;;;;;12.33;2.70;;;;;;;;;;5095921;28;20093;-69
2022/02/20 07:54:04;;;;;;;7.32;2.25;;;;;;;;;;5100737;28;20378;-69
2022/02/20 07:56:31;;;;;;;10.60;2.90;;;;;;;;;;5096157;28;20127;-69
2022/02/20 07:59:00;;;;;;;13.27;2.65;;;;;;;;;;5093022;28;20075;-69
2022/02/20 08:01:26;;;;;;;14.75;2.72;;;;;;;;;;5095132;28;20043;-69
2022/02/20 08:03:53;;;;;;;15.18;2.63;;;;;;;;;;5095629;28;20129;-71
2022/02/20 08:06:26;;;;;;;3.97;2.03;;;;;;;;;;5093180;28;20080;-70
2022/02/20 08:08:53;;;;;;;8.38;2.25;;;;;;;;;;5093742;28;20138;-70
2022/02/20 08:11:20;;;;;;;10.55;2.35;;;;;;;;;;5098924;28;20126;-70
2022/02/20 08:13:53;;;;;;;12.60;2.53;;;;;;;;;;5096067;28;20128;-70
2022/02/20 08:16:20;;;;;;;10.33;2.30;;;;;;;;;;5094765;28;20082;-70
2022/02/20 08:18:46;;;;;;;11.15;2.50;;;;;;;;;;5095844;28;20400;-70
2022/02/20 08:21:22;;;;;;;9.68;2.40;;;;;;;;;;5095673;28;20135;-70
2022/02/20 08:23:52;;;;;;;7.88;2.30;;;;;;;;;;5097492;28;20554;-70
2022/02/20 08:26:18;;;;;;;18.98;7.80;;;;;;;;;;5093666;28;20138;-70
2022/02/20 08:28:46;;;;;;;28.65;9.77;;;;;;;;;;5099114;28;20088;-70
2022/02/20 08:31:13;;;;;;;10.53;3.47;;;;;;;;;;5097278;28;20074;-71
2022/02/20 08:33:39;;;;;;;17.27;3.15;;;;;;;;;;5099116;27;20075;-71
2022/02/20 08:36:15;;;;;;;9.25;3.22;;;;;;;;;;5101321;28;20036;-71
2022/02/20 08:38:41;;;;;;;11.57;2.72;;;;;;;;;;5098976;27;20138;-72
2022/02/20 08:41:08;;;;;;;15.48;5.55;;;;;;;;;;5101419;28;20534;-71
2022/02/20 08:43:35;;;;;;;21.50;3.63;;;;;;;;;;5083972;28;20051;-73
2022/02/20 08:46:02;;;;;;;16.70;2.40;;;;;;;;;;5098144;28;20110;-70
2022/02/20 08:48:33;;;;;;;21.00;2.53;;;;;;;;;;5099663;28;20454;-70
2022/02/20 08:51:00;;;;;;;15.02;3.58;;;;;;;;;;5100076;28;20126;-70
2022/02/20 08:53:27;;;;;;;12.33;2.23;;;;;;;;;;5099099;28;20106;-70
2022/02/20 08:55:53;;;;;;;13.13;2.58;;;;;;;;;;5100798;28;20126;-70
2022/02/20 08:58:26;;;;;;;11.45;2.22;;;;;;;;;;5100592;28;20091;-71
2022/02/20 09:00:52;;;;;;;7.70;2.25;;;;;;;;;;5094973;28;20076;-70
2022/02/20 09:03:19;;;;;;;11.77;2.42;;;;;;;;;;5100321;28;20147;-69
2022/02/20 09:05:45;;;;;;;9.80;2.70;;;;;;;;;;5050956;28;20048;-71
2022/02/20 09:08:12;;;;;;;12.60;2.57;;;;;;;;;;5063785;28;20123;-70
2022/02/20 09:10:40;;;;;;;17.90;2.60;;;;;;;;;;5059979;28;20360;-70
2022/02/20 09:13:07;;;;;;;14.25;2.50;;;;;;;;;;5066461;28;20573;-70
2022/02/20 09:15:33;;;;;;;10.65;2.88;;;;;;;;;;5064583;28;20496;-69
2022/02/20 09:18:01;;;;;;;14.50;2.85;;;;;;;;;;5063302;28;20080;-69
2022/02/20 09:20:28;;;;;;;10.80;2.53;;;;;;;;;;5064777;28;20567;-69
2022/02/20 09:23:00;;;;;;;13.15;2.63;;;;;;;;;;5061014;28;20041;-69
2022/02/20 09:25:26;;;;;;;9.50;1.90;;;;;;;;;;5060756;28;20053;-69
2022/02/20 09:27:53;;;;;;;7.13;1.75;;;;;;;;;;5062764;28;20083;-70
2022/02/20 09:30:24;;;;;;;9.38;2.40;;;;;;;;;;5063815;28;20049;-69
2022/02/20 09:32:50;;;;;;;11.13;2.22;;;;;;;;;;5060878;28;20132;-68
2022/02/20 09:35:17;;;;;;;12.88;2.25;;;;;;;;;;5062632;28;20111;-69
2022/02/20 09:37:43;;;;;;;18.40;2.78;;;;;;;;;;5060755;28;20072;-70
2022/02/20 09:40:10;;;;;;;11.75;2.03;;;;;;;;;;5058228;28;20131;-69
2022/02/20 09:42:37;;;;;;;14.57;2.40;;;;;;;;;;5063983;28;20084;-69
2022/02/20 09:45:03;;;;;;;11.13;2.20;;;;;;;;;;5045923;28;20080;-69
2022/02/20 09:47:30;;;;;;;19.43;2.53;;;;;;;;;;5061807;28;20495;-69
2022/02/20 09:50:04;;;;;;;25.02;2.92;;;;;;;;;;5062355;28;20048;-68
2022/02/20 09:52:30;;;;;;;13.15;1.98;;;;;;;;;;5061858;28;20132;-69
2022/02/20 09:54:56;;;;;;;9.27;2.20;;;;;;;;;;5059839;28;20084;-69
2022/02/20 09:57:27;;;;;;;10.23;2.15;;;;;;;;;;5061937;28;20045;-69
2022/02/20 09:59:53;;;;;;;9.63;1.90;;;;;;;;;;5064793;28;20083;-69
2022/02/20 10:02:20;;;;;;;13.63;2.35;;;;;;;;;;5064485;28;20532;-68
2022/02/20 10:04:51;;;;;;;13.50;2.50;;;;;;;;;;5060244;28;20091;-68
2022/02/20 10:07:18;;;;;;;;;;;;;;;;;;5063754;28;20059;-68
2022/02/20 10:09:44;;;;;;;14.55;2.40;;;;;;;;;;5066297;28;19978;-68
2022/02/20 10:12:18;;;;;;;20.55;2.65;;;;;;;;;;5058521;28;20349;-69
2022/02/20 10:14:44;;;;;;;9.88;2.40;;;;;;;;;;5057146;28;20128;-68
2022/02/20 10:17:12;;;;;;;16.63;2.38;;;;;;;;;;5061158;28;20122;-68
2022/02/20 10:19:59;;;;;;;12.05;2.65;;;;;;;;;;5059397;28;20084;-69
2022/02/20 10:22:27;;;;;;;18.23;2.60;;;;;;;;;;5058510;28;20085;-68
2022/02/20 10:25:01;;;;;;;12.63;2.83;;;;;;;;;;5050151;28;20080;-69
2022/02/20 10:27:29;;;;;;;18.13;2.38;;;;;;;;;;5059666;28;20080;-68
2022/02/20 10:30:08;;;;;;;14.93;2.85;;;;;;;;;;5059925;28;20091;-69
2022/02/20 10:32:34;;;;;;;9.73;2.20;;;;;;;;;;5061298;28;20052;-68
2022/02/20 10:35:08;;;;;;;10.07;1.85;;;;;;;;;;5058389;28;20111;-68
2022/02/20 10:37:35;;;;;;;14.10;2.63;;;;;;;;;;5059510;28;20076;-68
2022/02/20 10:40:21;;;;;;;18.10;2.50;;;;;;;;;;5060113;28;20087;-68
2022/02/20 10:42:48;;;;;;;12.00;2.17;;;;;;;;;;5060988;28;20123;-68
2022/02/20 10:45:25;;;;;;;10.85;2.83;;;;;;;;;;5062803;28;20088;-68
2022/02/20 10:47:55;;;;;;;11.90;1.92;;;;;;;;;;5058880;28;20154;-68
2022/02/20 10:50:23;;;;;;;11.85;2.00;;;;;;;;;;5060252;28;20143;-68
2022/02/20 10:53:08;;;;;;;15.65;2.88;;;;;;;;;;5057663;28;20080;-68
2022/02/20 10:55:43;;;;;;;9.40;2.55;;;;;;;;;;5061940;28;20614;-68
2022/02/20 10:58:09;;;;;;;13.23;2.30;;;;;;;;;;5060370;28;20084;-68
2022/02/20 11:00:44;;;;;;;17.65;2.70;;;;;;;;;;5058573;28;20137;-68
2022/02/20 11:03:14;;;;;;;;;;;;;;;;;;5059611;28;20053;-69
2022/02/20 11:05:40;;;;;;;14.10;2.75;;;;;;;;;;5060075;28;20313;-69
2022/02/20 11:08:07;;;;;;;20.73;3.92;;;;;;;;;;5062386;28;20091;-68
2022/02/20 11:10:41;;;;;;;13.98;2.47;;;;;;;;;;5059782;28;20304;-68
2022/02/20 11:13:09;;;;;;;8.60;2.53;;;;;;;;;;5059432;28;20140;-69
2022/02/20 11:15:37;;;;;;;11.55;2.65;;;;;;;;;;5059398;28;20091;-69
2022/02/20 11:18:05;;;;;;;7.47;2.30;;;;;;;;;;5058620;28;20052;-69
2022/02/20 11:20:34;;;;;;;7.82;2.00;;;;;;;;;;5059947;28;20076;-69
2022/02/20 11:23:02;;;;;;;14.23;2.20;;;;;;;;;;5056766;28;20116;-69
2022/02/20 11:25:30;;;;;;;14.15;3.38;;;;;;;;;;5058518;28;20503;-69
2022/02/20 11:27:56;;;;;;;;;;;;;;;;;;5060628;28;20099;-69
2022/02/20 11:30:23;;;;;;;11.60;2.28;;;;;;;;;;5059878;28;19968;-70
2022/02/20 11:32:50;;;;;;;8.85;2.17;;;;;;;;;;5056576;28;20592;-70
2022/02/20 11:35:17;;;;;;;9.90;2.00;;;;;;;;;;5059173;28;20045;-71
2022/02/20 11:37:44;;;;;;;;;;;;;;;;;;5041106;28;20566;-70
2022/02/20 11:40:15;;;;;;;12.40;2.28;;;;;;;;;;5057048;28;20019;-71
2022/02/20 11:42:59;;;;;;;17.05;2.65;;;;;;;;;;5058035;28;20098;-71
2022/02/20 11:45:33;;;;;;;14.95;2.67;;;;;;;;;;5059254;28;20071;-71
2022/02/20 11:48:02;;;;;;;10.13;2.30;;;;;;;;;;5060956;28;20048;-71
2022/02/20 11:50:29;;;;;;;13.75;2.25;;;;;;;;;;5058579;28;20086;-71
2022/02/20 11:52:56;;;;;;;19.58;2.53;;;;;;;;;;5057145;28;20052;-70
2022/02/20 11:55:32;;;;;;;14.68;2.13;;;;;;;;;;5059634;28;20614;-71
2022/02/20 11:58:16;;;;;;;15.65;2.35;;;;;;;;;;5059886;28;20080;-71
2022/02/20 12:00:55;;;;;;;16.40;2.20;;;;;;;;;;5058167;28;20076;-71
2022/02/20 12:03:23;;;;;;;21.33;2.95;;;;;;;;;;5058401;28;20392;-71
2022/02/20 12:06:08;;;;;;;16.13;2.35;;;;;;;;;;5060631;28;20084;-71
2022/02/20 12:08:46;;;;;;;18.20;2.25;;;;;;;;;;5057623;28;20492;-71
2022/02/20 12:11:13;;;;;;;10.85;2.28;;;;;;;;;;5053551;28;20076;-72
2022/02/20 12:13:44;;;;;;;13.27;3.00;;;;;;;;;;5054567;28;20608;-71
2022/02/20 12:16:25;;;;;;;15.60;2.80;;;;;;;;;;5056997;28;20128;-71
2022/02/20 12:19:05;;;;;;;8.88;1.85;;;;;;;;;;5059044;28;20097;-74
2022/02/20 12:21:51;;;;;;;14.60;2.17;;;;;;;;;;5058405;28;20044;-74
2022/02/20 12:24:25;;;;;;;13.25;1.95;;;;;;;;;;5059636;28;20135;-74
2022/02/20 12:26:55;;;;;;;10.88;2.15;;;;;;;;;;5059344;28;20055;-73
2022/02/20 12:29:24;;;;;;;9.75;1.73;;;;;;;;;;5060720;28;20049;-73
2022/02/20 12:31:59;;;;;;;11.48;1.88;;;;;;;;;;5060278;28;20048;-73
2022/02/20 12:34:47;;;;;;;9.80;1.77;;;;;;;;;;5054812;28;20085;-73
2022/02/20 12:37:14;;;;;;;14.55;1.98;;;;;;;;;;5056659;28;20084;-74
2022/02/20 12:39:43;;;;;;;13.80;2.30;;;;;;;;;;5058029;28;20131;-74
2022/02/20 12:42:09;;;;;;;15.35;2.10;;;;;;;;;;5056656;28;20523;-73
2022/02/20 12:44:40;;;;;;;14.60;2.80;;;;;;;;;;5057423;28;20072;-74
2022/02/20 12:47:08;;;;;;;15.50;2.28;;;;;;;;;;5058773;28;20163;-74
2022/02/20 12:49:41;;;;;;;15.25;1.80;;;;;;;;;;5060931;28;20064;-73
2022/02/20 12:52:09;;;;;;;9.38;2.08;;;;;;;;;;5054404;28;20139;-73
2022/02/20 12:54:36;;;;;;;8.77;1.85;;;;;;;;;;5056175;28;20141;-74
2022/02/20 12:57:04;;;;;;;12.63;2.17;;;;;;;;;;5045827;28;20106;-74
2022/02/20 12:59:30;;;;;;;12.88;2.33;;;;;;;;;;5056382;28;20080;-74
2022/02/20 13:02:00;;;;;;;13.57;2.10;;;;;;;;;;5056087;28;20137;-74
2022/02/20 13:04:27;;;;;;;9.35;2.25;;;;;;;;;;5057614;28;20136;-74
2022/02/20 13:07:01;;;;;;;16.48;2.08;;;;;;;;;;5055927;28;20140;-74
2022/02/20 13:09:28;;;;;;;16.33;2.60;;;;;;;;;;5062739;28;20092;-74
2022/02/20 13:11:54;;;;;;;13.68;2.70;;;;;;;;;;5055795;28;20044;-74
2022/02/20 13:14:22;;;;;;;13.98;2.45;;;;;;;;;;5055834;28;20456;-74
2022/02/20 13:16:53;;;;;;;9.02;2.60;;;;;;;;;;5057209;28;20586;-75
2022/02/20 13:19:35;;;;;;;8.55;2.70;;;;;;;;;;5060140;28;20323;-74
2022/02/20 13:22:11;;;;;;;16.13;2.60;;;;;;;;;;5060136;28;20053;-74
2022/02/20 13:24:51;;;;;;;28.63;3.08;;;;;;;;;;5058832;28;20576;-74
2022/02/20 13:27:19;;;;;;;12.80;2.20;;;;;;;;;;5058927;28;20128;-74
2022/02/20 13:29:45;;;;;;;13.52;2.67;;;;;;;;;;5061918;28;20088;-74
2022/02/20 13:32:12;;;;;;;18.13;2.63;;;;;;;;;;5063378;28;20549;-74
2022/02/20 13:34:39;;;;;;;12.80;2.00;;;;;;;;;;5062229;28;20072;-74
2022/02/20 13:37:10;;;;;;;13.35;2.00;;;;;;;;;;5058173;28;20076;-75
2022/02/20 13:39:37;;;;;;;11.80;1.83;;;;;;;;;;5061329;28;20131;-73
2022/02/20 13:42:06;;;;;;;12.77;2.20;;;;;;;;;;5049732;28;20076;-74
2022/02/20 13:44:35;;;;;;;14.68;2.30;;;;;;;;;;5062586;28;20790;-74
2022/02/20 13:47:05;;;;;;;15.60;2.50;;;;;;;;;;5058552;28;20091;-74
2022/02/20 13:49:32;;;;;;;13.55;2.42;;;;;;;;;;5058052;28;20160;-75
2022/02/20 13:51:58;;;;;;;9.55;1.65;;;;;;;;;;5058130;28;20488;-74
2022/02/20 13:54:34;;;;;;;14.50;2.90;;;;;;;;;;5055665;28;22138;-74
2022/02/20 13:57:05;;;;;;;14.55;2.13;;;;;;;;;;5053379;28;20178;-74
2022/02/20 13:59:37;;;;;;;13.25;2.70;;;;;;;;;;5051001;28;20194;-74
2022/02/20 14:02:06;;;;;;;18.77;2.63;;;;;;;;;;5053678;28;20147;-73
2022/02/20 14:04:36;;;;;;;21.30;2.50;;;;;;;;;;5052544;28;20559;-74
2022/02/20 14:07:17;;;;;;;17.85;2.33;;;;;;;;;;5056088;28;20102;-74
2022/02/20 14:09:48;;;;;;;13.82;2.42;;;;;;;;;;5055788;28;20248;-74
2022/02/20 14:12:16;;;;;;;20.45;2.55;;;;;;;;;;5052494;28;20102;-73
2022/02/20 14:15:04;;;;;;;11.55;2.40;;;;;;;;;;5052028;28;20088;-74
2022/02/20 14:17:46;;;;;;;18.35;2.83;;;;;;;;;;5051317;28;20068;-74
2022/02/20 14:20:13;;;;;;;16.20;2.40;;;;;;;;;;5052852;28;20148;-74
2022/02/20 14:22:42;;;;;;;15.00;2.65;;;;;;;;;;5051639;28;20654;-74
2022/02/20 14:25:10;;;;;;;15.73;2.47;;;;;;;;;;5052505;28;20434;-75
2022/02/20 14:27:37;;;;;;;23.15;3.33;;;;;;;;;;5058241;28;20139;-74
2022/02/20 14:30:05;;;;;;;15.65;2.55;;;;;;;;;;5058471;28;20113;-74
2022/02/20 14:32:31;;;;;;;12.55;1.95;;;;;;;;;;5054183;28;20488;-74
2022/02/20 14:34:58;;;;;;;17.23;2.42;;;;;;;;;;5061882;28;20084;-74
2022/02/20 14:37:32;;;;;;;15.45;2.42;;;;;;;;;;5060801;28;20131;-74
2022/02/20 14:39:59;;;;;;;16.98;3.22;;;;;;;;;;5058002;28;20465;-74
2022/02/20 14:42:26;;;;;;;;;;;;;;;;;;5059039;28;20128;-74
2022/02/20 14:44:53;;;;;;;11.60;2.55;;;;;;;;;;5061679;28;19920;-74
2022/02/20 14:47:19;;;;;;;15.57;2.38;;;;;;;;;;5057916;28;20072;-74